WetterOnline ( https://www.wetteronline.de )

Wetter aktuell Konstanz

Aktuelles Wetter: Konstanz (397m)

6-stündlich | Neueste Meldungen
Ortszeit Temperatur Wetter
Di, 06.12. 7:00 0.5° C Nebel
Di, 06.12. 1:00 1.5° C leicht bewölkt
Mo, 05.12. 19:00 3.5° C leichter Regen
Mo, 05.12. 13:00 4.9° C bedeckt
Mo, 05.12. 7:00 2.6° C leichter Regen
Mo, 05.12. 1:00 2.1° C bedeckt
So, 04.12. 19:00 2.0° C bedeckt
So, 04.12. 13:00 1.8° C bedeckt
Ortszeit Temperatur Wetter
Di, 06.12. 12:00 2.2° C bedeckt
Di, 06.12. 11:50 2.2° C bedeckt
Di, 06.12. 11:40 2.2° C bedeckt
Di, 06.12. 11:30 2.3° C bedeckt
Di, 06.12. 11:20 2.3° C bedeckt
Di, 06.12. 11:10 2.2° C Dunst
Di, 06.12. 11:00 1.8° C bedeckt
Di, 06.12. 10:30 1.7° C bedeckt
Di, 06.12. 10:00 1.5° C bedeckt
Di, 06.12. 9:30 1.1° C bedeckt
Di, 06.12. 9:00 0.8° C bedeckt
Ortszeit Relative Feuchte Sichtweite
Di, 06.12. 7:00 100% 0.2 km
Di, 06.12. 1:00 98% 4.4 km
Mo, 05.12. 19:00 97% 22 km
Mo, 05.12. 13:00 86% 65 km
Mo, 05.12. 7:00 94% 12 km
Mo, 05.12. 1:00 88% 25 km
So, 04.12. 19:00 94% 14 km
So, 04.12. 13:00 85% 20 km
Ortszeit Relative Feuchte Sichtweite
Di, 06.12. 12:00 90% 11 km
Di, 06.12. 11:50 90% -
Di, 06.12. 11:40 90% -
Di, 06.12. 11:30 92% 9 km
Di, 06.12. 11:20 92% -
Di, 06.12. 11:10 94% -
Di, 06.12. 11:00 96% 7 km
Di, 06.12. 10:30 98% 7 km
Di, 06.12. 10:00 99% 7 km
Di, 06.12. 9:30 100% 5.0 km
Di, 06.12. 9:00 100% 4.3 km
Ortszeit Niederschlagsmenge Niederschlagsart
Di, 06.12. 7:00 0.2 l/m2 in 12 Std. -
Di, 06.12. 1:00 0.2 l/m2 in 6 Std. Regen
Mo, 05.12. 19:00 1 l/m2 in 12 Std. Regen
Mo, 05.12. 13:00 1 l/m2 in 6 Std. Regen
Mo, 05.12. 7:00 0.1 l/m2 in 12 Std. Regen
Mo, 05.12. 1:00 0.0 l/m2 in 6 Std. -
So, 04.12. 19:00 0.3 l/m2 in 12 Std. Regen
So, 04.12. 13:00 0.1 l/m2 in 6 Std. Regen
Ortszeit Niederschlagsmenge Niederschlagsart
Di, 06.12. 12:00 0.0 l/m2 in 1 Std. -
Di, 06.12. 11:50 keine Meldung -
Di, 06.12. 11:40 keine Meldung -
Di, 06.12. 11:30 0.0 l/m2 in 30 Min -
Di, 06.12. 11:20 keine Meldung -
Di, 06.12. 11:10 keine Meldung -
Di, 06.12. 11:00 0.0 l/m2 in 1 Std. -
Di, 06.12. 10:30 0.0 l/m2 in 30 Min -
Di, 06.12. 10:00 0.0 l/m2 in 1 Std. -
Di, 06.12. 9:30 0.0 l/m2 in 30 Min -
Di, 06.12. 9:00 0.0 l/m2 in 1 Std. -
Ortszeit Stärke Spitze Richtung
km/h Bft. km/h Grad Sektor
Di, 06.12. 7:00 4 1 11 340° N
Di, 06.12. 1:00 2 1 11 10° N
Mo, 05.12. 19:00 0 0 11 - -
Mo, 05.12. 13:00 4 1 11 70° O
Mo, 05.12. 7:00 4 1 25 350° N
Mo, 05.12. 1:00 19 3 26 240° SW
So, 04.12. 19:00 0 0 11 - -
So, 04.12. 13:00 6 1 13 330° NW
Ortszeit Stärke Spitze Richtung
km/h Bft. km/h Grad Sektor
Di, 06.12. 12:00 7 2 11 230° SW
Di, 06.12. 11:50 7 2 - 230° SW
Di, 06.12. 11:40 7 2 - 240° SW
Di, 06.12. 11:30 7 2 11 290° W
Di, 06.12. 11:20 7 2 - 290° W
Di, 06.12. 11:10 7 2 - 290° W
Di, 06.12. 11:00 7 2 11 290° W
Di, 06.12. 10:30 4 1 11 290° W
Di, 06.12. 10:00 4 1 7 320° NW
Di, 06.12. 9:30 4 1 7 320° NW
Di, 06.12. 9:00 4 1 7 270° W
Ortszeit Untergrenze Bedeckung Gattung
total tief tief mittel hoch
Di, 06.12. 7:00 <30 m 8/8 0/8 - - -
Di, 06.12. 1:00 90 m 2/8 2/8 - - -
Mo, 05.12. 19:00 960 m 8/8 8/8 - - -
Mo, 05.12. 13:00 1020 m 8/8 8/8 - - -
Mo, 05.12. 7:00 750 m 8/8 8/8 - - -
Mo, 05.12. 1:00 240 m 8/8 8/8 - - -
So, 04.12. 19:00 330 m 8/8 8/8 - - -
So, 04.12. 13:00 270 m 8/8 8/8 - - -
Ortszeit Bedeckungsgrad in Achtel und Wolkenuntergrenze
Di, 06.12. 12:00 8(210m)
Di, 06.12. 11:50 8(210m)
Di, 06.12. 11:40 8
Di, 06.12. 11:30 3(120m) 8(240m) 8(2100m)
Di, 06.12. 11:20 3(120m) 8(240m) 8(2100m)
Di, 06.12. 11:10 8
Di, 06.12. 11:00 7(150m) 8(300m)
Di, 06.12. 10:30 7(120m) 8(300m) 8(1800m)
Di, 06.12. 10:00 6(120m) 8(330m) 8(1800m)
Di, 06.12. 9:30 5(60m) 7(360m) 8(1800m)
Di, 06.12. 9:00 7(60m) 8(1800m)
Ortszeit Luftdruck NN (hPa) Tendenz (hPa in 3 Std.)
Di, 06.12. 7:00 1021 - 0,6
Di, 06.12. 1:00 1022 - 0,5
Mo, 05.12. 19:00 1021 + 0,6
Mo, 05.12. 13:00 1020 - 0,3
Mo, 05.12. 7:00 1019 + 1,1
Mo, 05.12. 1:00 1017 + 1,6
So, 04.12. 19:00 1014 + 0,8
So, 04.12. 13:00 1013 - 1,0
Ortszeit Luftdruck NN (hPa) Tendenz (hPa in 3 Std.)
Di, 06.12. 12:00 1020 - 0,2
Di, 06.12. 11:50 1020 keine Meldung
Di, 06.12. 11:40 1020 keine Meldung
Di, 06.12. 11:30 1020 + 0,1
Di, 06.12. 11:20 1020 keine Meldung
Di, 06.12. 11:10 1020 keine Meldung
Di, 06.12. 11:00 1020 + 0,1
Di, 06.12. 10:30 1020 - 0,2
Di, 06.12. 10:00 1020 - 0,3
Di, 06.12. 9:30 1020 - 0,5
Di, 06.12. 9:00 1020 - 0,5
Ortszeit Schneehöhe (cm)
Di, 06.12. 7:00 0
Di, 06.12. 1:00 0
Mo, 05.12. 19:00 0
Mo, 05.12. 13:00 0
Mo, 05.12. 7:00 0
Mo, 05.12. 1:00 0
So, 04.12. 19:00 0
So, 04.12. 13:00 0
Ortszeit Schneehöhe (cm)
Di, 06.12. 12:00 0
Di, 06.12. 11:50 0
Di, 06.12. 11:40 0
Di, 06.12. 11:30 0
Di, 06.12. 11:20 0
Di, 06.12. 11:10 0
Di, 06.12. 11:00 0
Di, 06.12. 10:30 0
Di, 06.12. 10:00 0
Di, 06.12. 9:30 0
Di, 06.12. 9:00 0
Link zu dieser Seite / Seite empfehlen

Das Wetter in ...